Time;durP1;ratioP1;P1;durP2;ratioP2;P2;SDS_P1;SDS_P2;PMS_P1;PMS_P2;Temp;Humidity;BMP_temperature;BMP_pressure;BME280_temperature;BME280_humidity;BME280_pressure;Samples;Min_cycle;Max_cycle;Signal;HPM_P1;HPM_P2
2023/10/29 00:00:52;;;;;;;0.55;0.28;;;;;;;;;;5282283;28;20428;-80
2023/10/29 00:03:23;;;;;;;1.05;0.20;;;;;;;;;;5281565;28;20111;-80
2023/10/29 00:05:54;;;;;;;1.13;0.15;;;;;;;;;;5281483;28;20044;-80
2023/10/29 00:08:25;;;;;;;1.52;0.20;;;;;;;;;;5281858;28;20383;-79
2023/10/29 00:10:56;;;;;;;0.98;0.20;;;;;;;;;;5282247;28;20020;-78
2023/10/29 00:13:28;;;;;;;2.15;0.20;;;;;;;;;;5280670;28;20028;-79
2023/10/29 00:15:59;;;;;;;1.30;0.35;;;;;;;;;;5282067;28;20020;-79
2023/10/29 00:18:30;;;;;;;1.65;0.35;;;;;;;;;;5281018;28;20066;-80
2023/10/29 00:21:03;;;;;;;4.70;0.40;;;;;;;;;;5281392;28;20036;-79
2023/10/29 00:23:35;;;;;;;2.38;0.20;;;;;;;;;;5281623;28;20009;-80
2023/10/29 00:26:06;;;;;;;1.30;0.20;;;;;;;;;;5281622;28;20017;-79
2023/10/29 00:28:37;;;;;;;0.90;0.20;;;;;;;;;;5281003;28;20111;-79
2023/10/29 00:31:08;;;;;;;2.17;0.63;;;;;;;;;;5281561;28;20020;-79
2023/10/29 00:33:40;;;;;;;1.92;0.20;;;;;;;;;;5284765;28;20378;-79
2023/10/29 00:36:11;;;;;;;1.58;0.10;;;;;;;;;;5285967;28;20017;-79
2023/10/29 00:38:42;;;;;;;1.65;0.20;;;;;;;;;;5285878;28;20016;-80
2023/10/29 00:41:13;;;;;;;1.20;0.40;;;;;;;;;;5285124;28;20029;-80
2023/10/29 00:43:45;;;;;;;1.67;0.20;;;;;;;;;;5285674;28;20021;-79
2023/10/29 00:46:16;;;;;;;1.47;0.17;;;;;;;;;;5285537;28;20353;-80
2023/10/29 00:48:48;;;;;;;1.02;0.30;;;;;;;;;;5284725;28;20728;-80
2023/10/29 00:51:19;;;;;;;0.68;0.20;;;;;;;;;;5285372;28;20509;-79
2023/10/29 00:53:51;;;;;;;1.05;0.20;;;;;;;;;;5286050;28;20040;-80
2023/10/29 00:56:22;;;;;;;1.40;0.10;;;;;;;;;;5284268;28;20048;-80
2023/10/29 00:58:53;;;;;;;1.73;0.20;;;;;;;;;;5285792;28;20448;-80
2023/10/29 01:01:25;;;;;;;1.00;0.13;;;;;;;;;;5284592;28;20709;-79
2023/10/29 01:03:56;;;;;;;1.75;0.20;;;;;;;;;;5285225;28;20013;-78
2023/10/29 01:06:27;;;;;;;1.10;0.20;;;;;;;;;;5285241;28;20078;-79
2023/10/29 01:08:59;;;;;;;0.60;0.20;;;;;;;;;;5284739;28;20259;-79
2023/10/29 01:11:30;;;;;;;0.50;0.10;;;;;;;;;;5284689;28;20069;-79
2023/10/29 01:14:01;;;;;;;1.13;0.10;;;;;;;;;;5285432;28;20456;-79
2023/10/29 01:16:32;;;;;;;0.80;0.10;;;;;;;;;;5284010;28;20066;-79
2023/10/29 01:19:04;;;;;;;1.57;0.30;;;;;;;;;;5285239;28;20008;-79
2023/10/29 01:21:35;;;;;;;1.45;0.10;;;;;;;;;;5285117;28;20306;-79
2023/10/29 01:24:06;;;;;;;1.08;0.20;;;;;;;;;;5284138;28;20020;-79
2023/10/29 01:26:37;;;;;;;2.63;0.20;;;;;;;;;;5284837;28;20036;-78
2023/10/29 01:29:09;;;;;;;1.35;0.10;;;;;;;;;;5285041;28;20474;-79
2023/10/29 01:31:40;;;;;;;1.33;0.40;;;;;;;;;;5284523;28;20008;-78
2023/10/29 01:34:11;;;;;;;2.47;0.20;;;;;;;;;;5284618;28;20051;-79
2023/10/29 01:36:42;;;;;;;0.43;0.13;;;;;;;;;;5283995;28;20334;-80
2023/10/29 01:39:13;;;;;;;0.47;0.10;;;;;;;;;;5285084;28;20788;-80
2023/10/29 01:41:45;;;;;;;1.88;0.25;;;;;;;;;;5285001;28;20025;-80
2023/10/29 01:44:16;;;;;;;1.38;0.10;;;;;;;;;;5287666;28;20515;-80
2023/10/29 01:46:47;;;;;;;1.50;0.10;;;;;;;;;;5290210;28;20056;-80
2023/10/29 01:49:18;;;;;;;1.20;0.10;;;;;;;;;;5291818;28;20262;-81
2023/10/29 01:51:49;;;;;;;1.65;0.20;;;;;;;;;;5289327;28;20040;-80
2023/10/29 01:54:23;;;;;;;1.50;0.20;;;;;;;;;;5292955;28;20012;-80
2023/10/29 01:56:56;;;;;;;0.88;0.10;;;;;;;;;;5289388;28;20344;-79
2023/10/29 01:59:27;;;;;;;1.10;0.10;;;;;;;;;;5287398;28;20044;-80
2023/10/29 02:01:59;;;;;;;0.88;0.10;;;;;;;;;;5289799;28;20052;-79
2023/10/29 02:04:32;;;;;;;2.47;0.30;;;;;;;;;;5289889;28;20043;-80
2023/10/29 02:07:03;;;;;;;0.90;0.20;;;;;;;;;;5287700;28;20062;-79
2023/10/29 02:09:34;;;;;;;0.68;0.10;;;;;;;;;;5289085;28;20017;-80
2023/10/29 02:12:05;;;;;;;0.98;0.20;;;;;;;;;;5288468;28;20025;-79
2023/10/29 02:14:38;;;;;;;1.23;0.20;;;;;;;;;;5286205;28;20016;-80
2023/10/29 02:17:10;;;;;;;2.78;0.47;;;;;;;;;;5284337;28;20032;-80
2023/10/29 02:19:41;;;;;;;2.05;0.20;;;;;;;;;;5283940;28;20043;-78
2023/10/29 02:22:12;;;;;;;0.60;0.10;;;;;;;;;;5284512;28;20102;-80
2023/10/29 02:24:43;;;;;;;1.92;0.20;;;;;;;;;;5283866;28;20325;-80
2023/10/29 02:27:14;;;;;;;0.82;0.15;;;;;;;;;;5283458;28;20471;-80
2023/10/29 02:29:46;;;;;;;0.80;0.10;;;;;;;;;;5284035;28;20024;-81
2023/10/29 02:32:17;;;;;;;0.55;0.10;;;;;;;;;;5283929;28;20021;-81
2023/10/29 02:34:48;;;;;;;0.68;0.17;;;;;;;;;;5282984;28;20020;-81
2023/10/29 02:37:19;;;;;;;1.13;0.10;;;;;;;;;;5283359;28;20274;-81
2023/10/29 02:39:51;;;;;;;1.42;0.25;;;;;;;;;;5283748;28;20050;-80
2023/10/29 02:42:22;;;;;;;1.23;0.20;;;;;;;;;;5282687;28;20024;-81
2023/10/29 02:44:54;;;;;;;0.95;0.10;;;;;;;;;;5283903;28;20040;-81
2023/10/29 02:47:25;;;;;;;0.90;0.10;;;;;;;;;;5282042;28;20049;-81
2023/10/29 02:49:56;;;;;;;0.50;0.10;;;;;;;;;;5283445;28;20035;-81
2023/10/29 02:52:28;;;;;;;1.20;0.10;;;;;;;;;;5282898;28;20024;-81
2023/10/29 02:54:59;;;;;;;0.70;0.10;;;;;;;;;;5282268;28;20773;-80
2023/10/29 02:57:30;;;;;;;0.85;0.10;;;;;;;;;;5283001;28;20020;-80
2023/10/29 03:00:04;;;;;;;0.40;0.10;;;;;;;;;;5283206;28;20032;-81
2023/10/29 03:02:35;;;;;;;0.98;0.20;;;;;;;;;;5282328;28;20012;-81
2023/10/29 03:05:09;;;;;;;0.30;0.10;;;;;;;;;;5283128;28;20076;-81
2023/10/29 03:07:40;;;;;;;1.40;0.10;;;;;;;;;;5283813;28;20266;-80
2023/10/29 03:10:11;;;;;;;2.95;0.10;;;;;;;;;;5282026;28;20359;-79
2023/10/29 03:12:42;;;;;;;0.93;0.10;;;;;;;;;;5282905;28;20012;-80
2023/10/29 03:15:14;;;;;;;0.73;0.10;;;;;;;;;;5282162;28;20100;-80
2023/10/29 03:17:45;;;;;;;1.38;0.10;;;;;;;;;;5282869;28;20490;-79
2023/10/29 03:20:16;;;;;;;0.38;0.10;;;;;;;;;;5282804;28;20028;-80
2023/10/29 03:22:47;;;;;;;0.77;0.10;;;;;;;;;;5282204;28;20082;-80
2023/10/29 03:25:18;;;;;;;0.85;0.10;;;;;;;;;;5282501;28;20021;-79
2023/10/29 03:27:50;;;;;;;3.30;0.10;;;;;;;;;;5282448;28;20294;-80
2023/10/29 03:30:21;;;;;;;0.43;0.10;;;;;;;;;;5281705;28;20262;-80
2023/10/29 03:32:52;;;;;;;2.10;0.10;;;;;;;;;;5282777;28;20025;-80
2023/10/29 03:35:26;;;;;;;0.77;0.03;;;;;;;;;;5282174;28;20348;-80
2023/10/29 03:37:58;;;;;;;2.30;0.10;;;;;;;;;;5281899;28;20489;-80
2023/10/29 03:40:29;;;;;;;2.17;0.10;;;;;;;;;;5282178;28;20036;-80
2023/10/29 03:43:01;;;;;;;1.00;0.10;;;;;;;;;;5282740;28;20312;-80
2023/10/29 03:45:32;;;;;;;1.53;0.10;;;;;;;;;;5281263;28;20017;-79
2023/10/29 03:48:03;;;;;;;1.10;0.10;;;;;;;;;;5281992;28;20279;-79
2023/10/29 03:50:34;;;;;;;1.45;0.20;;;;;;;;;;5281366;28;20426;-79
2023/10/29 03:53:06;;;;;;;0.98;0.10;;;;;;;;;;5282397;28;20012;-79
2023/10/29 03:55:37;;;;;;;1.48;0.10;;;;;;;;;;5282235;28;20040;-79
2023/10/29 03:58:08;;;;;;;2.67;0.10;;;;;;;;;;5281464;28;20046;-79
2023/10/29 04:00:40;;;;;;;1.42;0.20;;;;;;;;;;5282153;28;20052;-79
2023/10/29 04:03:11;;;;;;;1.30;0.13;;;;;;;;;;5281908;28;20043;-78
2023/10/29 04:05:42;;;;;;;1.27;0.15;;;;;;;;;;5281392;28;20430;-81
2023/10/29 04:08:14;;;;;;;1.55;0.10;;;;;;;;;;5281075;28;20100;-81
2023/10/29 04:10:45;;;;;;;2.58;0.10;;;;;;;;;;5281805;28;20021;-80
2023/10/29 04:13:16;;;;;;;1.15;0.20;;;;;;;;;;5280986;28;20103;-80
2023/10/29 04:15:47;;;;;;;2.65;0.10;;;;;;;;;;5281895;28;20027;-80
2023/10/29 04:18:19;;;;;;;1.92;0.10;;;;;;;;;;5281800;28;20039;-81
2023/10/29 04:20:50;;;;;;;0.77;0.10;;;;;;;;;;5281629;28;20086;-80
2023/10/29 04:23:22;;;;;;;0.37;0.10;;;;;;;;;;5281561;28;20038;-80
2023/10/29 04:25:53;;;;;;;2.05;0.10;;;;;;;;;;5281515;28;20262;-80
2023/10/29 04:28:24;;;;;;;0.52;0.10;;;;;;;;;;5281463;28;20023;-80
2023/10/29 04:30:56;;;;;;;2.00;0.10;;;;;;;;;;5282284;28;20036;-81
2023/10/29 04:33:27;;;;;;;1.63;0.10;;;;;;;;;;5280805;28;20032;-81
2023/10/29 04:35:58;;;;;;;1.40;0.20;;;;;;;;;;5282083;28;20027;-80
2023/10/29 04:38:30;;;;;;;1.27;0.20;;;;;;;;;;5283435;28;20068;-80
2023/10/29 04:41:01;;;;;;;1.15;0.20;;;;;;;;;;5285623;28;20033;-80
2023/10/29 04:43:32;;;;;;;1.10;0.10;;;;;;;;;;5281707;28;20089;-80
2023/10/29 04:46:04;;;;;;;0.73;0.10;;;;;;;;;;5281468;28;20104;-80
2023/10/29 04:48:35;;;;;;;1.50;0.40;;;;;;;;;;5280686;28;20051;-80
2023/10/29 04:51:07;;;;;;;1.52;0.10;;;;;;;;;;5281235;28;20025;-82
2023/10/29 04:53:38;;;;;;;1.27;0.20;;;;;;;;;;5281040;28;20031;-80
2023/10/29 04:56:09;;;;;;;3.35;0.20;;;;;;;;;;5281434;28;20445;-81
2023/10/29 04:58:40;;;;;;;1.13;0.10;;;;;;;;;;5281633;28;20021;-80
2023/10/29 05:01:13;;;;;;;2.60;0.20;;;;;;;;;;5280295;28;20543;-80
2023/10/29 05:03:44;;;;;;;2.17;0.60;;;;;;;;;;5281716;28;20259;-79
2023/10/29 05:06:22;;;;;;;2.90;0.40;;;;;;;;;;5284875;28;20023;-79
2023/10/29 05:08:53;;;;;;;2.45;0.20;;;;;;;;;;5282612;28;20021;-79
2023/10/29 05:11:25;;;;;;;2.30;0.20;;;;;;;;;;5281103;28;20036;-79
2023/10/29 05:13:56;;;;;;;1.25;0.17;;;;;;;;;;5281545;28;20040;-80
2023/10/29 05:16:27;;;;;;;3.08;0.20;;;;;;;;;;5280267;28;20024;-80
2023/10/29 05:18:59;;;;;;;4.80;0.38;;;;;;;;;;5283925;28;20401;-80
2023/10/29 05:21:31;;;;;;;1.65;0.20;;;;;;;;;;5284608;28;20029;-79
2023/10/29 05:24:02;;;;;;;1.85;0.20;;;;;;;;;;5284419;28;20020;-78
2023/10/29 05:26:33;;;;;;;3.15;0.30;;;;;;;;;;5284834;28;20107;-78
2023/10/29 05:29:05;;;;;;;2.42;0.30;;;;;;;;;;5284148;28;20158;-81
2023/10/29 05:31:36;;;;;;;2.72;0.20;;;;;;;;;;5285105;28;20475;-79
2023/10/29 05:34:07;;;;;;;2.17;0.25;;;;;;;;;;5285014;28;20031;-80
2023/10/29 05:36:38;;;;;;;1.60;0.10;;;;;;;;;;5284068;28;20398;-78
2023/10/29 05:39:09;;;;;;;0.80;0.10;;;;;;;;;;5284913;28;20364;-78
2023/10/29 05:41:41;;;;;;;0.60;0.10;;;;;;;;;;5284614;28;20303;-77
2023/10/29 05:44:14;;;;;;;1.95;0.10;;;;;;;;;;5284039;28;20016;-78
2023/10/29 05:46:45;;;;;;;1.30;0.43;;;;;;;;;;5284457;28;20025;-78
2023/10/29 05:49:16;;;;;;;1.15;0.10;;;;;;;;;;5284449;28;20054;-78
2023/10/29 05:51:47;;;;;;;0.95;0.13;;;;;;;;;;5283943;28;20021;-78
2023/10/29 05:54:18;;;;;;;1.23;0.25;;;;;;;;;;5284593;28;20024;-79
2023/10/29 05:56:50;;;;;;;1.85;0.10;;;;;;;;;;5283981;28;20109;-79
2023/10/29 05:59:21;;;;;;;1.20;0.10;;;;;;;;;;5283933;28;20031;-79
2023/10/29 06:01:52;;;;;;;1.50;0.25;;;;;;;;;;5284394;28;20299;-80
2023/10/29 06:04:23;;;;;;;1.25;0.20;;;;;;;;;;5283454;28;20070;-80
2023/10/29 06:06:55;;;;;;;1.58;0.10;;;;;;;;;;5284558;28;20103;-79
2023/10/29 06:09:26;;;;;;;3.28;0.20;;;;;;;;;;5283910;28;20013;-79
2023/10/29 06:11:58;;;;;;;2.97;0.20;;;;;;;;;;5283628;28;20460;-79
2023/10/29 06:14:29;;;;;;;3.83;0.38;;;;;;;;;;5283985;28;20601;-80
2023/10/29 06:17:00;;;;;;;1.73;0.20;;;;;;;;;;5284443;28;20017;-79
2023/10/29 06:19:32;;;;;;;1.45;0.20;;;;;;;;;;5282929;28;20013;-80
2023/10/29 06:22:06;;;;;;;2.58;0.30;;;;;;;;;;5283882;28;20020;-80
2023/10/29 06:24:37;;;;;;;3.40;0.20;;;;;;;;;;5283755;28;20108;-80
2023/10/29 06:27:08;;;;;;;2.47;0.30;;;;;;;;;;5282989;28;20430;-80
2023/10/29 06:29:39;;;;;;;4.75;0.30;;;;;;;;;;5282879;28;20463;-79
2023/10/29 06:32:11;;;;;;;2.45;0.30;;;;;;;;;;5282862;28;20052;-79
2023/10/29 06:34:42;;;;;;;7.13;0.57;;;;;;;;;;5283642;28;20021;-79
2023/10/29 06:37:13;;;;;;;3.88;0.45;;;;;;;;;;5283249;28;20059;-79
2023/10/29 06:39:44;;;;;;;2.53;0.28;;;;;;;;;;5283158;28;20468;-80
2023/10/29 06:42:15;;;;;;;4.15;0.30;;;;;;;;;;5283871;28;20064;-79
2023/10/29 06:44:46;;;;;;;4.07;0.40;;;;;;;;;;5284011;28;20016;-80
2023/10/29 06:47:18;;;;;;;4.03;0.30;;;;;;;;;;5282831;28;20283;-81
2023/10/29 06:49:50;;;;;;;4.72;0.22;;;;;;;;;;5283686;28;20021;-79
2023/10/29 06:52:21;;;;;;;3.00;0.40;;;;;;;;;;5283640;28;20020;-81
2023/10/29 06:54:53;;;;;;;5.27;0.50;;;;;;;;;;5283052;28;20017;-80
2023/10/29 06:57:24;;;;;;;3.30;0.35;;;;;;;;;;5282390;28;20338;-79
2023/10/29 06:59:56;;;;;;;3.17;0.30;;;;;;;;;;5283265;28;20047;-80
2023/10/29 07:02:27;;;;;;;4.22;0.68;;;;;;;;;;5282191;28;20024;-79
2023/10/29 07:04:59;;;;;;;2.13;0.30;;;;;;;;;;5283607;28;20013;-80
2023/10/29 07:07:30;;;;;;;4.97;0.35;;;;;;;;;;5282298;28;20111;-80
2023/10/29 07:10:03;;;;;;;5.10;0.50;;;;;;;;;;5283214;28;20149;-80
2023/10/29 07:12:35;;;;;;;4.88;0.50;;;;;;;;;;5282874;28;20263;-79
2023/10/29 07:15:08;;;;;;;4.15;0.20;;;;;;;;;;5282344;28;20402;-79
2023/10/29 07:17:40;;;;;;;4.95;0.40;;;;;;;;;;5282869;28;20016;-81
2023/10/29 07:20:11;;;;;;;5.53;0.40;;;;;;;;;;5282741;28;20364;-82
2023/10/29 07:22:43;;;;;;;2.33;0.30;;;;;;;;;;5281903;28;20150;-83
2023/10/29 07:25:14;;;;;;;3.50;0.40;;;;;;;;;;5282004;28;20515;-82
2023/10/29 07:27:45;;;;;;;6.27;0.40;;;;;;;;;;5282488;28;20028;-82
2023/10/29 07:30:16;;;;;;;4.50;0.65;;;;;;;;;;5281793;28;20388;-83
2023/10/29 07:32:48;;;;;;;5.45;0.60;;;;;;;;;;5285260;28;20051;-83
2023/10/29 07:35:19;;;;;;;3.85;0.30;;;;;;;;;;5289358;28;20017;-84
2023/10/29 07:37:50;;;;;;;3.50;0.50;;;;;;;;;;5284944;28;20127;-82
2023/10/29 07:40:21;;;;;;;6.27;0.40;;;;;;;;;;5283467;28;20043;-84
2023/10/29 07:42:52;;;;;;;6.13;0.40;;;;;;;;;;5284458;28;20267;-83
2023/10/29 07:45:24;;;;;;;3.47;0.43;;;;;;;;;;5282690;28;20031;-83
2023/10/29 07:47:55;;;;;;;5.85;0.70;;;;;;;;;;5281896;28;20282;-83
2023/10/29 07:50:26;;;;;;;5.93;0.40;;;;;;;;;;5281890;28;20499;-83
2023/10/29 07:52:57;;;;;;;4.50;0.50;;;;;;;;;;5282917;28;20760;-83
2023/10/29 07:55:29;;;;;;;3.30;0.40;;;;;;;;;;5282505;28;20028;-83
2023/10/29 07:58:00;;;;;;;6.03;0.57;;;;;;;;;;5282086;28;20287;-82
2023/10/29 08:00:31;;;;;;;5.82;0.55;;;;;;;;;;5282143;28;20287;-84
2023/10/29 08:03:02;;;;;;;4.00;0.30;;;;;;;;;;5282790;28;20027;-84
2023/10/29 08:05:33;;;;;;;6.85;0.45;;;;;;;;;;5281693;28;20025;-83
2023/10/29 08:08:05;;;;;;;19.48;1.20;;;;;;;;;;5282309;28;20028;-83
2023/10/29 08:10:37;;;;;;;5.18;0.38;;;;;;;;;;5281273;28;20488;-79
2023/10/29 08:13:10;;;;;;;7.15;0.40;;;;;;;;;;5282308;28;20025;-84
2023/10/29 08:15:41;;;;;;;7.13;0.55;;;;;;;;;;5281698;28;20017;-78
2023/10/29 08:18:12;;;;;;;4.13;0.40;;;;;;;;;;5280634;28;20384;-77
2023/10/29 08:20:43;;;;;;;4.13;0.50;;;;;;;;;;5282302;28;20078;-83
2023/10/29 08:23:14;;;;;;;6.00;0.70;;;;;;;;;;5281890;28;20017;-84
2023/10/29 08:25:46;;;;;;;3.30;0.30;;;;;;;;;;5281338;28;20025;-84
2023/10/29 08:28:18;;;;;;;8.35;1.05;;;;;;;;;;5283323;28;20016;-84
2023/10/29 08:30:50;;;;;;;5.50;0.50;;;;;;;;;;5283774;28;20031;-82
2023/10/29 08:33:21;;;;;;;4.47;0.50;;;;;;;;;;5281149;28;20508;-83
2023/10/29 08:35:52;;;;;;;5.78;0.45;;;;;;;;;;5282722;28;20069;-83
2023/10/29 08:38:23;;;;;;;3.42;0.68;;;;;;;;;;5282288;28;20110;-83
2023/10/29 08:40:54;;;;;;;5.78;0.40;;;;;;;;;;5281874;28;20108;-83
2023/10/29 08:43:26;;;;;;;6.60;0.40;;;;;;;;;;5282020;28;20021;-80
2023/10/29 08:45:57;;;;;;;5.43;0.93;;;;;;;;;;5282180;28;20259;-84
2023/10/29 08:48:28;;;;;;;5.57;0.50;;;;;;;;;;5281791;28;20514;-84
2023/10/29 08:50:59;;;;;;;4.80;0.60;;;;;;;;;;5282181;28;20684;-82
2023/10/29 08:53:31;;;;;;;7.05;0.40;;;;;;;;;;5283088;28;20016;-83
2023/10/29 08:56:03;;;;;;;6.78;0.68;;;;;;;;;;5287418;28;20044;-82
2023/10/29 08:58:34;;;;;;;4.82;0.40;;;;;;;;;;5291347;28;20042;-83
2023/10/29 09:01:06;;;;;;;5.32;0.40;;;;;;;;;;5285765;28;20115;-83
2023/10/29 09:03:37;;;;;;;5.03;0.60;;;;;;;;;;5286117;28;20390;-82
2023/10/29 09:06:09;;;;;;;2.95;0.38;;;;;;;;;;5286065;28;20054;-83
2023/10/29 09:08:40;;;;;;;3.17;0.30;;;;;;;;;;5284485;28;20013;-83
2023/10/29 09:11:14;;;;;;;5.32;0.50;;;;;;;;;;5285275;28;20378;-83
2023/10/29 09:13:46;;;;;;;3.05;0.30;;;;;;;;;;5284789;28;20019;-84
2023/10/29 09:16:17;;;;;;;6.50;0.40;;;;;;;;;;5285165;28;20017;-83
2023/10/29 09:18:48;;;;;;;4.37;0.47;;;;;;;;;;5285177;28;20021;-83
2023/10/29 09:21:19;;;;;;;4.35;0.40;;;;;;;;;;5284097;28;20845;-83
2023/10/29 09:23:51;;;;;;;4.88;0.60;;;;;;;;;;5285412;28;20107;-83
2023/10/29 09:26:22;;;;;;;6.17;0.60;;;;;;;;;;5285155;28;20078;-83
2023/10/29 09:28:53;;;;;;;3.38;0.38;;;;;;;;;;5284961;28;20267;-83
2023/10/29 09:31:24;;;;;;;7.40;0.70;;;;;;;;;;5284802;28;20032;-82
2023/10/29 09:33:56;;;;;;;5.72;0.60;;;;;;;;;;5284989;28;20259;-83
2023/10/29 09:36:27;;;;;;;6.05;0.80;;;;;;;;;;5283414;28;20021;-84
2023/10/29 09:38:58;;;;;;;3.50;0.43;;;;;;;;;;5285484;28;20070;-84
2023/10/29 09:41:31;;;;;;;2.70;0.50;;;;;;;;;;5284354;28;20385;-84
2023/10/29 09:44:02;;;;;;;1.73;0.40;;;;;;;;;;5284115;28;20266;-82
2023/10/29 09:46:35;;;;;;;2.65;0.30;;;;;;;;;;5284602;28;20032;-83
2023/10/29 09:49:07;;;;;;;6.20;0.65;;;;;;;;;;5283498;28;20029;-84
2023/10/29 09:51:40;;;;;;;3.05;0.40;;;;;;;;;;5284884;28;20487;-83
2023/10/29 09:54:12;;;;;;;5.55;0.50;;;;;;;;;;5284633;28;20374;-84
2023/10/29 09:56:43;;;;;;;6.50;0.63;;;;;;;;;;5283732;28;20099;-84
2023/10/29 09:59:14;;;;;;;3.88;0.40;;;;;;;;;;5284304;28;20096;-84
2023/10/29 10:01:45;;;;;;;6.00;0.40;;;;;;;;;;5284889;28;20494;-82
2023/10/29 10:04:16;;;;;;;4.93;0.47;;;;;;;;;;5282519;28;20066;-82
2023/10/29 10:06:48;;;;;;;3.90;0.40;;;;;;;;;;5284214;28;20038;-83
2023/10/29 10:09:19;;;;;;;6.35;0.40;;;;;;;;;;5283878;28;20017;-83
2023/10/29 10:12:01;;;;;;;4.57;0.60;;;;;;;;;;5283874;28;20025;-83
2023/10/29 10:14:32;;;;;;;3.97;0.40;;;;;;;;;;5284221;28;20274;-83
2023/10/29 10:17:10;;;;;;;6.68;0.63;;;;;;;;;;5283362;28;20024;-84
2023/10/29 10:19:41;;;;;;;4.78;0.30;;;;;;;;;;5284130;28;20066;-83
2023/10/29 10:22:19;;;;;;;5.43;0.47;;;;;;;;;;5284379;28;20029;-83
2023/10/29 10:24:51;;;;;;;3.97;0.50;;;;;;;;;;5283825;28;20746;-83
2023/10/29 10:27:22;;;;;;;3.70;0.40;;;;;;;;;;5285076;28;20031;-83
2023/10/29 10:29:53;;;;;;;5.50;0.40;;;;;;;;;;5289184;28;20262;-84
2023/10/29 10:32:24;;;;;;;3.17;0.40;;;;;;;;;;5284417;28;20266;-84
2023/10/29 10:34:59;;;;;;;6.60;1.03;;;;;;;;;;5284957;28;20023;-84
2023/10/29 10:37:32;;;;;;;4.18;0.40;;;;;;;;;;5283899;28;20329;-84
2023/10/29 10:40:20;;;;;;;5.00;0.50;;;;;;;;;;5283007;28;20029;-83
2023/10/29 10:42:57;;;;;;;4.87;0.87;;;;;;;;;;5283997;28;20047;-83
2023/10/29 10:45:30;;;;;;;5.38;0.50;;;;;;;;;;5282744;28;20467;-83
2023/10/29 10:48:04;;;;;;;4.05;0.38;;;;;;;;;;5284499;28;20040;-84
2023/10/29 10:50:35;;;;;;;4.05;0.40;;;;;;;;;;5287698;28;20027;-83
2023/10/29 10:53:07;;;;;;;6.22;0.40;;;;;;;;;;5288648;28;20017;-83
2023/10/29 10:55:39;;;;;;;3.80;0.40;;;;;;;;;;5283573;28;20032;-84
2023/10/29 10:58:12;;;;;;;4.60;0.68;;;;;;;;;;5283294;28;20016;-83
2023/10/29 11:00:44;;;;;;;3.95;0.77;;;;;;;;;;5282356;28;20032;-83
2023/10/29 11:03:17;;;;;;;5.38;0.60;;;;;;;;;;5283658;28;20066;-83
2023/10/29 11:05:49;;;;;;;5.75;0.85;;;;;;;;;;5283238;28;20056;-83
2023/10/29 11:08:21;;;;;;;5.43;0.50;;;;;;;;;;5282236;28;20040;-84
2023/10/29 11:10:56;;;;;;;2.42;0.40;;;;;;;;;;5283308;28;20027;-84
2023/10/29 11:13:28;;;;;;;8.07;0.47;;;;;;;;;;5282213;28;20056;-84
2023/10/29 11:16:01;;;;;;;5.75;0.50;;;;;;;;;;5282779;28;20544;-83
2023/10/29 11:18:34;;;;;;;6.68;0.95;;;;;;;;;;5282551;28;20025;-75
2023/10/29 11:21:05;;;;;;;9.10;0.57;;;;;;;;;;5281889;28;20495;-73
2023/10/29 11:23:38;;;;;;;8.45;0.68;;;;;;;;;;5282407;28;20020;-76
2023/10/29 11:26:19;;;;;;;6.28;0.50;;;;;;;;;;5282998;28;20501;-82
2023/10/29 11:28:52;;;;;;;2.08;0.35;;;;;;;;;;5282291;28;20028;-82
2023/10/29 11:31:25;;;;;;;3.47;0.43;;;;;;;;;;5282617;28;20110;-83
2023/10/29 11:33:56;;;;;;;4.32;0.50;;;;;;;;;;5283092;28;20375;-84
2023/10/29 11:36:33;;;;;;;6.57;0.40;;;;;;;;;;5281864;28;20020;-85
2023/10/29 11:39:16;;;;;;;4.80;0.57;;;;;;;;;;5282939;28;20278;-85
2023/10/29 11:41:48;;;;;;;6.40;0.60;;;;;;;;;;5282105;28;20512;-85
2023/10/29 11:44:27;;;;;;;5.13;0.40;;;;;;;;;;5282436;28;20383;-84
2023/10/29 11:46:58;;;;;;;4.47;0.80;;;;;;;;;;5282778;28;20040;-84
2023/10/29 11:49:42;;;;;;;4.28;0.50;;;;;;;;;;5281807;28;20050;-83
2023/10/29 11:52:14;;;;;;;3.50;0.50;;;;;;;;;;5282597;28;20266;-85
2023/10/29 11:54:46;;;;;;;6.80;0.40;;;;;;;;;;5282537;28;20032;-85
2023/10/29 11:57:21;;;;;;;4.23;0.43;;;;;;;;;;5281815;28;20016;-85
2023/10/29 11:59:55;;;;;;;5.72;0.50;;;;;;;;;;5282746;28;20267;-84
2023/10/29 12:02:27;;;;;;;5.50;0.90;;;;;;;;;;5282472;28;20028;-84
2023/10/29 12:04:58;;;;;;;5.55;0.57;;;;;;;;;;5282243;28;20031;-84
2023/10/29 12:07:32;;;;;;;5.65;0.40;;;;;;;;;;5282150;28;20020;-82
2023/10/29 12:10:07;;;;;;;7.53;0.60;;;;;;;;;;5282959;28;20475;-84
2023/10/29 12:12:38;;;;;;;4.57;0.52;;;;;;;;;;5283367;28;20042;-84
2023/10/29 12:15:12;;;;;;;7.65;0.50;;;;;;;;;;5283603;28;20488;-83
2023/10/29 12:17:45;;;;;;;5.53;0.45;;;;;;;;;;5282467;28;20024;-80
2023/10/29 12:20:21;;;;;;;3.33;0.40;;;;;;;;;;5284935;28;20023;-81
2023/10/29 12:22:54;;;;;;;4.38;0.43;;;;;;;;;;5284655;28;20020;-83
2023/10/29 12:25:26;;;;;;;5.40;1.23;;;;;;;;;;5282843;28;20016;-81
2023/10/29 12:27:57;;;;;;;4.65;0.90;;;;;;;;;;5283226;28;20016;-79
2023/10/29 12:30:32;;;;;;;4.05;1.05;;;;;;;;;;5282726;28;20100;-81
2023/10/29 12:33:16;;;;;;;3.88;0.40;;;;;;;;;;5284945;28;20017;-83
2023/10/29 12:35:49;;;;;;;5.43;0.57;;;;;;;;;;5290857;28;20028;-83
2023/10/29 12:38:21;;;;;;;3.97;0.65;;;;;;;;;;5294672;28;20016;-83
2023/10/29 12:41:14;;;;;;;6.13;0.50;;;;;;;;;;5289800;28;20158;-83
2023/10/29 12:43:49;;;;;;;6.18;0.73;;;;;;;;;;5288199;28;20024;-83
2023/10/29 12:46:21;;;;;;;3.47;0.32;;;;;;;;;;5286837;28;20377;-82
2023/10/29 12:49:03;;;;;;;4.70;0.68;;;;;;;;;;5285476;28;20044;-82
2023/10/29 12:51:41;;;;;;;5.65;0.50;;;;;;;;;;5287360;28;20092;-84
2023/10/29 12:54:19;;;;;;;3.35;0.40;;;;;;;;;;5281661;28;20020;-82
2023/10/29 12:57:11;;;;;;;3.20;0.50;;;;;;;;;;5285172;28;20430;-82
2023/10/29 12:59:44;;;;;;;3.28;0.45;;;;;;;;;;5282115;28;20023;-83
2023/10/29 13:02:23;;;;;;;3.42;0.40;;;;;;;;;;5283316;28;20429;-83
2023/10/29 13:04:54;;;;;;;;;;;;;;;;;;5289154;28;20025;-83
2023/10/29 13:07:26;;;;;;;6.72;0.50;;;;;;;;;;5286372;28;19958;-79
2023/10/29 13:10:04;;;;;;;4.20;0.40;;;;;;;;;;5282797;28;20032;-79
2023/10/29 13:12:36;;;;;;;4.10;0.75;;;;;;;;;;5282838;28;20017;-80
2023/10/29 13:15:08;;;;;;;3.55;0.40;;;;;;;;;;5281382;28;20048;-80
2023/10/29 13:17:40;;;;;;;4.53;0.38;;;;;;;;;;5282856;28;20364;-79
2023/10/29 13:20:14;;;;;;;2.78;0.40;;;;;;;;;;5281004;28;20086;-78
2023/10/29 13:22:46;;;;;;;3.33;0.80;;;;;;;;;;5282080;28;20024;-78
2023/10/29 13:25:18;;;;;;;5.43;0.50;;;;;;;;;;5283249;28;20020;-79
2023/10/29 13:27:49;;;;;;;4.40;0.77;;;;;;;;;;5282264;28;20016;-79
2023/10/29 13:30:20;;;;;;;5.70;0.50;;;;;;;;;;5281493;28;20467;-79
2023/10/29 13:32:51;;;;;;;3.73;0.53;;;;;;;;;;5282261;28;20599;-77
2023/10/29 13:35:23;;;;;;;5.93;0.80;;;;;;;;;;5280453;28;20282;-77
2023/10/29 13:37:54;;;;;;;5.68;0.63;;;;;;;;;;5280886;28;20024;-77
2023/10/29 13:40:25;;;;;;;3.88;0.70;;;;;;;;;;5283820;28;20067;-77
2023/10/29 13:42:56;;;;;;;11.38;0.70;;;;;;;;;;5256796;28;20395;-78
2023/10/29 13:45:28;;;;;;;5.27;0.57;;;;;;;;;;5246494;28;20364;-79
2023/10/29 13:47:59;;;;;;;4.60;0.40;;;;;;;;;;5245711;28;20287;-78
2023/10/29 13:50:30;;;;;;;5.35;0.60;;;;;;;;;;5246702;28;20399;-78
2023/10/29 13:53:05;;;;;;;4.57;0.40;;;;;;;;;;5246295;28;20500;-79
2023/10/29 13:55:37;;;;;;;4.70;0.43;;;;;;;;;;5244893;28;20441;-79
2023/10/29 13:58:08;;;;;;;4.15;0.43;;;;;;;;;;5246736;28;20584;-77
2023/10/29 14:00:39;;;;;;;4.38;0.43;;;;;;;;;;5245203;28;20028;-80
2023/10/29 14:03:10;;;;;;;4.75;0.60;;;;;;;;;;5247001;28;20016;-80
2023/10/29 14:05:43;;;;;;;5.35;0.40;;;;;;;;;;5248801;28;20075;-79
2023/10/29 14:08:14;;;;;;;4.65;0.63;;;;;;;;;;5245777;28;20291;-79
2023/10/29 14:10:46;;;;;;;5.88;0.60;;;;;;;;;;5244739;28;20506;-78
2023/10/29 14:13:17;;;;;;;5.28;0.75;;;;;;;;;;5242680;28;20058;-78
2023/10/29 14:15:49;;;;;;;7.00;0.80;;;;;;;;;;5244171;28;20016;-77
2023/10/29 14:18:20;;;;;;;6.13;0.60;;;;;;;;;;5246863;28;20690;-77
2023/10/29 14:20:51;;;;;;;5.30;0.60;;;;;;;;;;5250348;28;20020;-79
2023/10/29 14:23:26;;;;;;;4.43;0.50;;;;;;;;;;5246977;28;20364;-80
2023/10/29 14:25:58;;;;;;;4.90;0.50;;;;;;;;;;5247671;28;20267;-79
2023/10/29 14:28:29;;;;;;;4.22;0.47;;;;;;;;;;5248600;28;20040;-78
2023/10/29 14:31:00;;;;;;;4.90;0.40;;;;;;;;;;5245617;28;20023;-79
2023/10/29 14:33:31;;;;;;;3.65;0.40;;;;;;;;;;5244902;28;20096;-79
2023/10/29 14:36:03;;;;;;;2.58;0.50;;;;;;;;;;5247870;28;20572;-78
2023/10/29 14:38:34;;;;;;;1.13;0.30;;;;;;;;;;5245042;28;20021;-78
2023/10/29 14:41:05;;;;;;;1.27;0.20;;;;;;;;;;5247642;28;20089;-78
2023/10/29 14:43:37;;;;;;;1.60;0.10;;;;;;;;;;5285737;28;20275;-78
2023/10/29 14:46:09;;;;;;;0.82;0.10;;;;;;;;;;5284302;28;20017;-80
2023/10/29 14:48:42;;;;;;;2.85;0.20;;;;;;;;;;5282911;28;20048;-79
2023/10/29 14:51:14;;;;;;;1.00;0.10;;;;;;;;;;5281088;28;20020;-79
2023/10/29 14:53:45;;;;;;;0.85;0.20;;;;;;;;;;5282513;28;20024;-79
2023/10/29 14:56:19;;;;;;;2.15;0.20;;;;;;;;;;5283773;28;20078;-80
2023/10/29 14:58:50;;;;;;;1.58;0.20;;;;;;;;;;5282590;28;20104;-80
2023/10/29 15:01:22;;;;;;;1.50;0.30;;;;;;;;;;5284525;28;20039;-80
2023/10/29 15:03:53;;;;;;;1.27;0.10;;;;;;;;;;5284250;28;20047;-81
2023/10/29 15:06:24;;;;;;;0.80;0.10;;;;;;;;;;5282503;28;20020;-79
2023/10/29 15:08:55;;;;;;;0.65;0.10;;;;;;;;;;5284097;28;20016;-77
2023/10/29 15:11:27;;;;;;;1.30;0.10;;;;;;;;;;5283380;28;20067;-78